createdAt,value
2022-11-17T00:00:32.797Z,7.37
2022-11-17T00:02:59.172Z,7.35
2022-11-17T00:05:25.664Z,7.26
2022-11-17T00:07:52.101Z,7.38
2022-11-17T00:10:18.599Z,7.31
2022-11-17T00:13:03.452Z,7.38
2022-11-17T00:15:30.430Z,7.44
2022-11-17T00:18:15.413Z,7.38
2022-11-17T00:21:00.756Z,7.46
2022-11-17T00:23:46.557Z,7.39
2022-11-17T00:26:15.048Z,7.47
2022-11-17T00:28:41.481Z,7.48
2022-11-17T00:31:29.521Z,7.52
2022-11-17T00:34:05.445Z,7.43
2022-11-17T00:36:39.478Z,7.52
2022-11-17T00:39:07.497Z,7.53
2022-11-17T00:41:34.045Z,7.57
2022-11-17T00:44:00.568Z,7.50
2022-11-17T00:46:27.458Z,7.64
2022-11-17T00:48:53.925Z,7.65
2022-11-17T00:51:20.747Z,7.62
2022-11-17T00:53:47.557Z,7.60
2022-11-17T00:56:14.033Z,7.59
2022-11-17T00:58:40.631Z,7.66
2022-11-17T01:01:07.215Z,7.65
2022-11-17T01:03:37.870Z,7.69
2022-11-17T01:06:10.418Z,7.70
2022-11-17T01:08:37.113Z,7.67
2022-11-17T01:11:18.875Z,7.71
2022-11-17T01:13:47.203Z,7.74
2022-11-17T01:16:16.797Z,7.74
2022-11-17T01:18:45.039Z,7.73
2022-11-17T01:21:17.383Z,7.76
2022-11-17T01:23:44.908Z,7.74
2022-11-17T01:26:20.007Z,7.75
2022-11-17T01:28:48.038Z,7.67
2022-11-17T01:31:28.844Z,7.75
2022-11-17T01:33:56.137Z,7.75
2022-11-17T01:36:29.024Z,7.71
2022-11-17T01:38:55.564Z,7.70
2022-11-17T01:41:27.753Z,7.69
2022-11-17T01:43:59.416Z,7.76
2022-11-17T01:46:27.956Z,7.76
2022-11-17T01:49:03.313Z,7.79
2022-11-17T01:51:33.297Z,7.79
2022-11-17T01:54:00.163Z,7.73
2022-11-17T01:56:32.938Z,7.73
2022-11-17T01:59:07.604Z,7.76
2022-11-17T02:01:34.214Z,7.71
2022-11-17T02:04:01.280Z,7.77
2022-11-17T02:06:36.140Z,7.72
2022-11-17T02:09:04.041Z,7.78
2022-11-17T02:11:36.176Z,7.76
2022-11-17T02:14:05.158Z,7.71
2022-11-17T02:16:31.796Z,7.76
2022-11-17T02:18:58.297Z,7.64
2022-11-17T02:21:30.614Z,7.74
2022-11-17T02:24:03.070Z,7.74
2022-11-17T02:27:00.403Z,7.79
2022-11-17T02:29:47.633Z,7.72
2022-11-17T02:32:22.515Z,7.73
2022-11-17T02:34:59.452Z,7.73
2022-11-17T02:37:37.656Z,7.71
2022-11-17T02:40:13.587Z,7.72
2022-11-17T02:43:01.266Z,7.72
2022-11-17T02:45:55.510Z,7.69
2022-11-17T02:48:29.513Z,7.66
2022-11-17T02:50:58.070Z,7.62
2022-11-17T02:53:27.108Z,7.68
2022-11-17T02:55:54.396Z,7.64
2022-11-17T02:58:21.282Z,7.59
2022-11-17T03:01:01.628Z,7.61
2022-11-17T03:03:39.830Z,7.62
2022-11-17T03:06:20.491Z,7.58
2022-11-17T03:09:08.720Z,7.59
2022-11-17T03:12:13.840Z,7.58
2022-11-17T03:15:04.497Z,7.56
2022-11-17T03:17:49.292Z,7.54
2022-11-17T03:20:24.664Z,7.52
2022-11-17T03:23:10.675Z,7.53
2022-11-17T03:25:39.653Z,7.51
2022-11-17T03:28:10.209Z,7.50
2022-11-17T03:30:41.594Z,7.53
2022-11-17T03:33:15.143Z,7.47
2022-11-17T03:35:50.809Z,7.48
2022-11-17T03:38:20.565Z,7.43
2022-11-17T03:40:50.071Z,7.40
2022-11-17T03:43:19.251Z,7.45
2022-11-17T03:45:50.172Z,7.41
2022-11-17T03:48:21.097Z,7.40
2022-11-17T03:51:10.755Z,7.41
2022-11-17T03:53:37.912Z,7.38
2022-11-17T03:56:23.526Z,7.37
2022-11-17T03:59:00.153Z,7.33
2022-11-17T04:01:29.200Z,7.31
2022-11-17T04:03:55.814Z,7.27
2022-11-17T04:06:22.341Z,7.31
2022-11-17T04:08:48.765Z,7.30
2022-11-17T04:11:33.720Z,7.29
2022-11-17T04:14:19.007Z,7.24
2022-11-17T04:16:45.554Z,7.23
2022-11-17T04:19:12.035Z,7.25
2022-11-17T04:21:38.532Z,7.23
2022-11-17T04:24:05.342Z,7.22
2022-11-17T04:26:50.177Z,7.18
2022-11-17T04:29:17.572Z,7.20
2022-11-17T04:31:44.104Z,7.17
2022-11-17T04:34:10.537Z,7.18
2022-11-17T04:36:43.306Z,7.15
2022-11-17T04:39:14.369Z,7.17
2022-11-17T04:42:00.094Z,7.14
2022-11-17T04:44:28.640Z,7.14
2022-11-17T04:46:55.796Z,7.11
2022-11-17T04:49:23.856Z,7.12
2022-11-17T04:51:51.854Z,7.10
2022-11-17T04:54:20.898Z,7.09
2022-11-17T04:56:48.242Z,7.11
2022-11-17T04:59:15.114Z,7.11
2022-11-17T05:01:42.016Z,7.07
2022-11-17T05:04:10.963Z,7.09
2022-11-17T05:06:43.214Z,7.09
2022-11-17T05:09:15.877Z,7.05
2022-11-17T05:12:01.950Z,7.00
2022-11-17T05:14:29.405Z,7.03
2022-11-17T05:17:09.528Z,7.04
2022-11-17T05:19:44.170Z,7.04
2022-11-17T05:22:31.735Z,6.95
2022-11-17T05:24:58.177Z,6.89
2022-11-17T05:27:25.904Z,6.94
2022-11-17T05:29:52.814Z,6.95
2022-11-17T05:32:19.818Z,6.94
2022-11-17T05:34:46.241Z,6.97
2022-11-17T05:37:12.761Z,6.96
2022-11-17T05:39:39.578Z,6.94
2022-11-17T05:42:05.990Z,6.95
2022-11-17T05:44:32.419Z,6.94
2022-11-17T05:46:59.057Z,6.89
2022-11-17T05:49:25.531Z,6.92
2022-11-17T05:51:53.107Z,6.84
2022-11-17T05:54:20.295Z,6.89
2022-11-17T05:56:52.520Z,6.87
2022-11-17T05:59:31.482Z,6.87
2022-11-17T06:02:07.530Z,6.88
2022-11-17T06:04:34.766Z,6.86
2022-11-17T06:07:02.301Z,6.86
2022-11-17T06:09:32.894Z,6.87
2022-11-17T06:12:05.303Z,6.86
2022-11-17T06:14:32.663Z,6.83
2022-11-17T06:17:05.074Z,6.81
2022-11-17T06:19:38.803Z,6.78
2022-11-17T06:22:12.192Z,6.83
2022-11-17T06:24:41.874Z,6.81
2022-11-17T06:27:09.594Z,6.82
2022-11-17T06:29:39.440Z,6.84
2022-11-17T06:32:09.627Z,6.77
2022-11-17T06:34:36.185Z,6.84
2022-11-17T06:37:02.662Z,6.79
2022-11-17T06:39:29.220Z,6.82
2022-11-17T06:41:55.722Z,6.77
2022-11-17T06:44:22.135Z,6.76
2022-11-17T06:46:49.274Z,6.82
2022-11-17T06:49:15.955Z,6.79
2022-11-17T06:51:45.162Z,6.77
2022-11-17T06:54:12.851Z,6.80
2022-11-17T06:56:39.598Z,6.76
2022-11-17T06:59:06.072Z,6.77
2022-11-17T07:01:32.522Z,6.74
2022-11-17T07:03:59.308Z,6.76
2022-11-17T07:06:25.786Z,6.72
2022-11-17T07:08:52.248Z,6.69
2022-11-17T07:11:18.902Z,6.74
2022-11-17T07:13:45.898Z,6.79
2022-11-17T07:16:18.653Z,6.71
2022-11-17T07:18:48.391Z,6.67
2022-11-17T07:21:15.536Z,6.72
2022-11-17T07:23:43.129Z,6.76
2022-11-17T07:26:09.828Z,6.71
2022-11-17T07:28:36.597Z,6.79
2022-11-17T07:31:07.924Z,6.78
2022-11-17T07:33:34.866Z,6.79
2022-11-17T07:36:09.792Z,6.77
2022-11-17T07:38:38.353Z,6.71
2022-11-17T07:41:06.754Z,6.70
2022-11-17T07:43:33.823Z,6.77
2022-11-17T07:46:05.403Z,6.78
2022-11-17T07:48:32.720Z,6.77
2022-11-17T07:51:00.129Z,6.72
2022-11-17T07:53:26.844Z,6.72
2022-11-17T07:55:53.624Z,6.69
2022-11-17T07:58:20.034Z,6.76
2022-11-17T08:00:46.657Z,6.76
2022-11-17T08:03:13.189Z,6.76
2022-11-17T08:05:43.681Z,6.71
2022-11-17T08:08:10.521Z,6.82
2022-11-17T08:10:37.048Z,6.81
2022-11-17T08:13:03.892Z,6.72
2022-11-17T08:15:31.625Z,6.80
2022-11-17T08:17:59.733Z,6.80
2022-11-17T08:20:28.631Z,6.76
2022-11-17T08:22:55.678Z,6.79
2022-11-17T08:25:24.071Z,6.78
2022-11-17T08:27:52.088Z,6.82
2022-11-17T08:30:20.416Z,6.74
2022-11-17T08:32:56.074Z,6.80
2022-11-17T08:35:25.211Z,6.84
2022-11-17T08:37:52.251Z,6.83
2022-11-17T08:40:19.289Z,6.88
2022-11-17T08:42:46.582Z,6.89
2022-11-17T08:45:13.755Z,6.83
2022-11-17T08:47:40.582Z,6.88
2022-11-17T08:50:07.444Z,6.85
2022-11-17T08:52:33.870Z,6.83
2022-11-17T08:55:00.391Z,6.83
2022-11-17T08:57:29.577Z,6.87
2022-11-17T08:59:56.031Z,6.93
2022-11-17T09:02:22.552Z,6.97
2022-11-17T09:04:50.484Z,6.92
2022-11-17T09:07:16.978Z,6.92
2022-11-17T09:09:43.819Z,6.97
2022-11-17T09:12:10.318Z,6.98
2022-11-17T09:14:36.769Z,6.98
2022-11-17T09:17:04.055Z,6.93
2022-11-17T09:19:30.598Z,7.02
2022-11-17T09:21:57.213Z,7.01
2022-11-17T09:24:24.024Z,7.07
2022-11-17T09:26:54.513Z,7.03
2022-11-17T09:29:21.221Z,6.98
2022-11-17T09:31:47.732Z,6.97
2022-11-17T09:34:14.351Z,7.09
2022-11-17T09:36:42.120Z,7.10
2022-11-17T09:39:08.671Z,7.04
2022-11-17T09:41:42.285Z,7.12
2022-11-17T09:44:41.518Z,7.10
2022-11-17T09:47:35.444Z,7.12
2022-11-17T09:50:13.873Z,7.17
2022-11-17T09:53:01.278Z,7.20
2022-11-17T09:55:40.025Z,7.21
2022-11-17T09:58:39.538Z,7.23
2022-11-17T10:01:11.433Z,7.22
2022-11-17T10:03:45.688Z,7.19
2022-11-17T10:06:25.172Z,7.26
2022-11-17T10:09:25.993Z,7.27
2022-11-17T10:11:54.574Z,7.25
2022-11-17T10:14:22.429Z,7.25
2022-11-17T10:16:57.124Z,7.24
2022-11-17T10:19:38.040Z,7.29
2022-11-17T10:22:05.256Z,7.30
2022-11-17T10:24:34.881Z,7.30
2022-11-17T10:27:03.426Z,7.29
2022-11-17T10:29:29.917Z,7.30
2022-11-17T10:31:56.422Z,7.30
2022-11-17T10:34:41.422Z,7.23
2022-11-17T10:37:14.180Z,7.28
2022-11-17T10:39:42.613Z,7.24
2022-11-17T10:42:27.802Z,7.17
2022-11-17T10:44:58.360Z,7.19
2022-11-17T10:47:31.570Z,7.17
2022-11-17T10:50:21.666Z,7.04
2022-11-17T10:52:49.730Z,6.99
2022-11-17T10:55:20.556Z,7.00
2022-11-17T10:57:54.914Z,6.93
2022-11-17T11:00:31.539Z,6.93
2022-11-17T11:03:19.221Z,6.86
2022-11-17T11:06:21.205Z,6.88
2022-11-17T11:08:54.096Z,6.85
2022-11-17T11:11:48.810Z,6.84
2022-11-17T11:14:20.763Z,6.82
2022-11-17T11:16:49.459Z,6.77
2022-11-17T11:19:18.812Z,6.77
2022-11-17T11:22:20.981Z,6.79
2022-11-17T11:25:18.853Z,6.76
2022-11-17T11:28:07.173Z,6.70
2022-11-17T11:30:42.680Z,6.66
2022-11-17T11:33:12.077Z,6.70
2022-11-17T11:35:41.458Z,6.70
2022-11-17T11:38:45.455Z,6.70
2022-11-17T11:41:24.280Z,6.69
2022-11-17T11:44:03.067Z,6.72
2022-11-17T11:47:00.946Z,6.75
2022-11-17T11:49:52.436Z,6.74
2022-11-17T11:52:21.866Z,6.64
2022-11-17T11:55:01.914Z,6.72
2022-11-17T11:57:45.164Z,6.74
2022-11-17T12:00:17.957Z,6.63
2022-11-17T12:03:04.029Z,6.68
2022-11-17T12:05:53.371Z,6.62
2022-11-17T12:08:46.024Z,6.65
2022-11-17T12:11:35.111Z,6.60
2022-11-17T12:14:05.794Z,6.49
2022-11-17T12:16:36.044Z,6.59
2022-11-17T12:19:02.918Z,6.66
2022-11-17T12:21:30.530Z,6.55
2022-11-17T12:24:14.916Z,6.59
2022-11-17T12:26:41.611Z,6.54
2022-11-17T12:29:25.878Z,6.56
2022-11-17T12:31:57.670Z,6.60
2022-11-17T12:34:26.760Z,6.60
2022-11-17T12:37:15.164Z,6.60
2022-11-17T12:40:03.759Z,6.63
2022-11-17T12:42:32.793Z,6.56
2022-11-17T12:45:01.573Z,6.63
2022-11-17T12:47:34.075Z,6.61
2022-11-17T12:50:18.910Z,6.63
2022-11-17T12:52:54.537Z,6.61
2022-11-17T12:55:32.904Z,6.62
2022-11-17T12:58:16.823Z,6.62
2022-11-17T13:00:52.885Z,6.62
2022-11-17T13:03:27.847Z,6.65
2022-11-17T13:06:33.802Z,6.63
2022-11-17T13:09:03.269Z,6.60
2022-11-17T13:11:30.150Z,6.61
2022-11-17T13:14:16.524Z,6.72
2022-11-17T13:16:49.558Z,6.66
2022-11-17T13:19:42.443Z,6.68
2022-11-17T13:22:21.287Z,6.68
2022-11-17T13:28:31.426Z,6.65
2022-11-17T13:30:59.768Z,6.63
2022-11-17T13:33:26.871Z,6.68
2022-11-17T13:36:17.204Z,6.70
2022-11-17T13:38:47.252Z,6.77
2022-11-17T13:41:15.355Z,6.65
2022-11-17T13:43:42.048Z,6.59
2022-11-17T13:46:08.678Z,6.58
2022-11-17T13:48:36.567Z,6.58
2022-11-17T13:51:25.243Z,6.60
2022-11-17T13:54:01.033Z,6.56
2022-11-17T13:56:40.067Z,6.52
2022-11-17T13:59:28.819Z,6.54
2022-11-17T14:02:22.760Z,6.54
2022-11-17T14:05:11.027Z,6.53
2022-11-17T14:07:39.754Z,6.46
2022-11-17T14:10:37.364Z,6.47
2022-11-17T14:13:06.524Z,6.44
2022-11-17T14:15:47.912Z,6.42
2022-11-17T14:18:37.546Z,6.42
2022-11-17T14:21:15.537Z,6.41
2022-11-17T14:23:43.952Z,6.29
2022-11-17T14:26:21.555Z,6.29
2022-11-17T14:28:50.024Z,6.38
2022-11-17T14:31:16.879Z,6.29
2022-11-17T14:33:43.781Z,6.34
2022-11-17T14:36:14.602Z,6.26
2022-11-17T14:38:41.451Z,6.20
2022-11-17T14:41:07.872Z,6.19
2022-11-17T14:43:34.580Z,6.25
2022-11-17T14:46:01.065Z,6.14
2022-11-17T14:48:27.638Z,6.16
2022-11-17T14:50:59.236Z,6.23
2022-11-17T14:53:25.931Z,6.17
2022-11-17T14:55:53.273Z,6.22
2022-11-17T14:58:20.436Z,6.18
2022-11-17T15:00:46.927Z,6.20
2022-11-17T15:03:13.550Z,6.18
2022-11-17T15:05:45.638Z,6.16
2022-11-17T15:08:12.440Z,6.14
2022-11-17T15:10:44.321Z,6.17
2022-11-17T15:13:11.048Z,6.06
2022-11-17T15:15:37.497Z,6.12
2022-11-17T15:18:04.064Z,6.10
2022-11-17T15:20:31.110Z,6.11
2022-11-17T15:23:02.882Z,6.14
2022-11-17T15:25:29.713Z,5.98
2022-11-17T15:27:56.432Z,6.13
2022-11-17T15:30:23.068Z,6.12
2022-11-17T15:32:49.479Z,6.07
2022-11-17T15:35:16.008Z,6.08
2022-11-17T15:37:42.542Z,6.07
2022-11-17T15:40:09.732Z,5.96
2022-11-17T15:42:36.164Z,6.08
2022-11-17T15:45:02.641Z,6.06
2022-11-17T15:47:29.108Z,6.04
2022-11-17T15:49:58.450Z,6.05
2022-11-17T15:52:48.792Z,6.11
2022-11-17T15:55:11.664Z,6.05
2022-11-17T15:57:38.102Z,6.04
2022-11-17T16:00:06.714Z,6.09
2022-11-17T16:02:33.113Z,6.08
2022-11-17T16:04:59.564Z,6.06
2022-11-17T16:07:26.098Z,6.00
2022-11-17T16:09:52.875Z,6.04
2022-11-17T16:12:19.354Z,5.95
2022-11-17T16:14:53.197Z,5.99
2022-11-17T16:17:19.646Z,5.93
2022-11-17T16:19:46.251Z,6.04
2022-11-17T16:22:12.633Z,5.94
2022-11-17T16:24:39.696Z,5.92
2022-11-17T16:27:07.220Z,5.90
2022-11-17T16:29:33.847Z,5.92
2022-11-17T16:32:00.279Z,6.04
2022-11-17T16:34:26.936Z,5.92
2022-11-17T16:36:53.620Z,6.03
2022-11-17T16:39:20.889Z,6.00
2022-11-17T16:41:47.528Z,5.98
2022-11-17T16:44:16.785Z,6.03
2022-11-17T16:46:45.792Z,5.96
2022-11-17T16:49:14.989Z,6.00
2022-11-17T16:51:48.453Z,5.89
2022-11-17T16:54:15.274Z,5.84
2022-11-17T16:56:41.854Z,6.00
2022-11-17T16:59:10.494Z,5.92
2022-11-17T17:01:37.303Z,5.88
2022-11-17T17:04:07.147Z,5.88
2022-11-17T17:06:35.018Z,5.88
2022-11-17T17:09:04.606Z,5.90
2022-11-17T17:11:32.567Z,5.95
2022-11-17T17:14:00.313Z,5.93
2022-11-17T17:16:27.003Z,5.92
2022-11-17T17:19:01.680Z,5.96
2022-11-17T17:21:29.162Z,5.95
2022-11-17T17:23:56.077Z,5.95
2022-11-17T17:26:24.240Z,5.92
2022-11-17T17:28:54.018Z,5.93
2022-11-17T17:31:22.360Z,5.92
2022-11-17T17:33:50.617Z,5.94
2022-11-17T17:36:22.370Z,5.94
2022-11-17T17:38:54.942Z,5.93
2022-11-17T17:41:27.359Z,5.98
2022-11-17T17:43:58.741Z,5.96
2022-11-17T17:46:26.130Z,5.97
2022-11-17T17:48:52.626Z,5.99
2022-11-17T17:51:20.884Z,5.99
2022-11-17T17:53:49.975Z,5.93
2022-11-17T17:56:18.435Z,6.00
2022-11-17T17:58:46.721Z,5.99
2022-11-17T18:01:15.886Z,6.00
2022-11-17T18:03:45.645Z,6.00
2022-11-17T18:06:12.943Z,5.99
2022-11-17T18:08:39.844Z,6.01
2022-11-17T18:11:10.370Z,5.98
2022-11-17T18:13:38.609Z,5.98
2022-11-17T18:16:06.966Z,5.99
2022-11-17T18:18:34.117Z,5.93
2022-11-17T18:21:20.827Z,6.01
2022-11-17T18:23:47.325Z,5.98
2022-11-17T18:26:19.617Z,5.98
2022-11-17T18:28:57.270Z,6.00
2022-11-17T18:31:26.132Z,5.98
2022-11-17T18:33:57.119Z,5.91
2022-11-17T18:36:24.791Z,5.89
2022-11-17T18:38:52.663Z,5.83
2022-11-17T18:41:20.736Z,5.97
2022-11-17T18:43:48.207Z,5.91
2022-11-17T18:46:22.536Z,5.90
2022-11-17T18:48:51.752Z,5.95
2022-11-17T18:51:23.751Z,5.95
2022-11-17T18:53:52.280Z,5.89
2022-11-17T18:56:21.924Z,5.95
2022-11-17T18:58:48.960Z,5.83
2022-11-17T19:01:17.027Z,5.93
2022-11-17T19:03:45.643Z,5.92
2022-11-17T19:06:13.353Z,5.90
2022-11-17T19:08:40.370Z,5.81
2022-11-17T19:11:08.812Z,5.88
2022-11-17T19:13:37.975Z,5.90
2022-11-17T19:16:14.313Z,5.84
2022-11-17T19:18:41.731Z,5.87
2022-11-17T19:21:16.578Z,5.90
2022-11-17T19:23:50.795Z,5.82
2022-11-17T19:26:23.700Z,5.86
2022-11-17T19:28:50.426Z,5.88
2022-11-17T19:31:19.473Z,5.76
2022-11-17T19:33:47.568Z,5.84
2022-11-17T19:36:22.934Z,5.82
2022-11-17T19:38:51.346Z,5.79
2022-11-17T19:41:20.199Z,5.83
2022-11-17T19:43:47.110Z,5.82
2022-11-17T19:46:16.671Z,5.80
2022-11-17T19:48:43.913Z,5.79
2022-11-17T19:51:20.475Z,5.78
2022-11-17T19:53:52.538Z,5.73
2022-11-17T19:56:19.686Z,5.61
2022-11-17T19:58:47.227Z,5.73
2022-11-17T20:01:19.669Z,5.66
2022-11-17T20:03:46.816Z,5.71
2022-11-17T20:06:17.059Z,5.71
2022-11-17T20:08:43.519Z,5.74
2022-11-17T20:11:14.002Z,5.64
2022-11-17T20:13:41.578Z,5.61
2022-11-17T20:16:14.775Z,5.58
2022-11-17T20:18:42.895Z,5.57
2022-11-17T20:21:10.810Z,5.51
2022-11-17T20:23:38.841Z,5.41
2022-11-17T20:26:26.229Z,5.40
2022-11-17T20:28:53.620Z,5.42
2022-11-17T20:31:25.342Z,5.42
2022-11-17T20:33:53.862Z,5.40
2022-11-17T20:36:21.537Z,5.35
2022-11-17T20:38:53.156Z,5.34
2022-11-17T20:41:21.023Z,5.34
2022-11-17T20:43:49.060Z,5.30
2022-11-17T20:46:15.718Z,5.28
2022-11-17T20:48:42.521Z,5.23
2022-11-17T20:51:14.293Z,5.21
2022-11-17T20:53:41.040Z,5.17
2022-11-17T20:56:10.513Z,5.12
2022-11-17T20:58:37.664Z,5.17
2022-11-17T21:01:14.606Z,5.16
2022-11-17T21:03:41.313Z,5.14
2022-11-17T21:06:07.858Z,5.05
2022-11-17T21:08:37.051Z,5.12
2022-11-17T21:11:32.903Z,5.06
2022-11-17T21:14:00.057Z,5.06
2022-11-17T21:16:26.632Z,5.07
2022-11-17T21:18:53.144Z,5.08
2022-11-17T21:21:20.013Z,5.03
2022-11-17T21:23:46.441Z,5.03
2022-11-17T21:26:16.934Z,5.03
2022-11-17T21:28:43.508Z,5.00
2022-11-17T21:31:12.488Z,5.00
2022-11-17T21:33:39.750Z,5.01
2022-11-17T21:36:17.106Z,5.02
2022-11-17T21:38:45.342Z,5.00
2022-11-17T21:41:14.861Z,5.00
2022-11-17T21:43:42.819Z,4.99
2022-11-17T21:46:12.503Z,4.96
2022-11-17T21:48:39.376Z,4.95
2022-11-17T21:51:13.148Z,4.97
2022-11-17T21:53:39.858Z,4.98
2022-11-17T21:56:07.630Z,4.97
2022-11-17T21:58:34.499Z,4.89
2022-11-17T22:01:13.118Z,4.96
2022-11-17T22:03:40.879Z,4.94
2022-11-17T22:06:17.496Z,4.93
2022-11-17T22:08:45.281Z,4.92
2022-11-17T22:11:34.876Z,4.91
2022-11-17T22:14:08.366Z,4.90
2022-11-17T22:16:37.949Z,4.91
2022-11-17T22:19:05.771Z,4.89
2022-11-17T22:21:32.802Z,4.88
2022-11-17T22:23:59.459Z,4.90
2022-11-17T22:26:26.013Z,4.85
2022-11-17T22:28:54.827Z,4.88
2022-11-17T22:31:22.086Z,4.85
2022-11-17T22:33:49.744Z,4.82
2022-11-17T22:36:17.227Z,4.82
2022-11-17T22:38:44.629Z,4.86
2022-11-17T22:41:12.814Z,4.85
2022-11-17T22:43:39.498Z,4.75
2022-11-17T22:46:11.402Z,4.82
2022-11-17T22:48:38.350Z,4.82
2022-11-17T22:51:05.682Z,4.77
2022-11-17T22:53:33.834Z,4.82
2022-11-17T22:56:05.554Z,4.84
2022-11-17T22:58:33.427Z,4.83
2022-11-17T23:01:04.949Z,4.82
2022-11-17T23:03:31.538Z,4.81
2022-11-17T23:06:04.893Z,4.81
2022-11-17T23:08:32.144Z,4.78
2022-11-17T23:11:34.699Z,4.82
2022-11-17T23:13:48.865Z,4.89
2022-11-17T23:16:15.741Z,4.75
2022-11-17T23:18:42.485Z,4.76
2022-11-17T23:21:10.386Z,4.70
2022-11-17T23:23:39.628Z,4.74
2022-11-17T23:26:08.970Z,4.68
2022-11-17T23:28:36.079Z,4.70
2022-11-17T23:31:04.988Z,4.67
2022-11-17T23:33:36.903Z,4.66
2022-11-17T23:36:05.325Z,4.66
2022-11-17T23:38:33.070Z,4.58
2022-11-17T23:41:10.803Z,4.61
2022-11-17T23:43:37.379Z,4.56
2022-11-17T23:46:12.195Z,4.60
2022-11-17T23:48:39.262Z,4.55
2022-11-17T23:51:10.729Z,4.59
2022-11-17T23:53:37.178Z,4.55
2022-11-17T23:56:04.554Z,4.57
2022-11-17T23:58:31.591Z,4.55
